createdAt,value
2023-01-09T00:00:54.862Z,3.01
2023-01-09T00:06:18.618Z,3.00
2023-01-09T00:11:40.906Z,3.00
2023-01-09T00:17:03.231Z,3.00
2023-01-09T00:22:25.709Z,3.01
2023-01-09T00:27:51.950Z,2.99
2023-01-09T00:33:14.808Z,2.98
2023-01-09T00:38:38.577Z,2.98
2023-01-09T00:44:05.339Z,2.98
2023-01-09T00:49:29.350Z,3.01
2023-01-09T00:54:53.943Z,3.01
2023-01-09T01:00:18.793Z,3.01
2023-01-09T01:05:59.059Z,3.00
2023-01-09T01:11:19.424Z,3.00
2023-01-09T01:16:41.723Z,2.98
2023-01-09T01:22:04.138Z,2.96
2023-01-09T01:27:26.378Z,2.94
2023-01-09T01:32:48.930Z,2.92
2023-01-09T01:38:11.507Z,2.90
2023-01-09T01:43:33.765Z,2.90
2023-01-09T01:48:58.373Z,2.88
2023-01-09T01:54:25.520Z,2.88
2023-01-09T01:59:52.537Z,2.87
2023-01-09T02:05:16.595Z,2.87
2023-01-09T02:10:39.871Z,2.86
2023-01-09T02:16:19.155Z,2.89
2023-01-09T02:22:12.752Z,2.98
2023-01-09T02:27:57.777Z,2.90
2023-01-09T02:33:48.245Z,2.91
2023-01-09T02:39:31.567Z,2.93
2023-01-09T02:44:54.053Z,2.93
2023-01-09T02:50:28.052Z,2.95
2023-01-09T02:56:17.772Z,2.97
2023-01-09T03:01:56.202Z,2.99
2023-01-09T03:07:35.664Z,2.99
2023-01-09T03:13:00.805Z,3.02
2023-01-09T03:18:28.216Z,3.03
2023-01-09T03:24:11.201Z,3.02
2023-01-09T03:29:34.283Z,3.05
2023-01-09T03:34:56.560Z,3.04
2023-01-09T03:40:19.760Z,3.04
2023-01-09T03:45:42.132Z,3.07
2023-01-09T03:51:07.838Z,3.06
2023-01-09T03:56:30.503Z,3.07
2023-01-09T04:01:52.867Z,3.06
2023-01-09T04:07:15.321Z,3.07
2023-01-09T04:12:37.654Z,3.07
2023-01-09T04:17:59.826Z,3.06
2023-01-09T04:23:22.652Z,3.05
2023-01-09T04:28:44.985Z,3.04
2023-01-09T04:34:07.740Z,3.02
2023-01-09T04:39:29.979Z,3.04
2023-01-09T04:44:53.975Z,3.00
2023-01-09T04:50:17.726Z,2.99
2023-01-09T04:55:41.852Z,2.99
2023-01-09T05:01:04.367Z,3.00
2023-01-09T05:06:26.782Z,2.99
2023-01-09T05:11:49.013Z,2.98
2023-01-09T05:17:11.193Z,2.97
2023-01-09T05:22:33.984Z,2.99
2023-01-09T05:27:56.308Z,2.96
2023-01-09T05:33:18.530Z,2.96
2023-01-09T05:38:40.811Z,2.94
2023-01-09T05:44:03.130Z,2.92
2023-01-09T05:49:26.375Z,2.86
2023-01-09T05:54:48.755Z,2.79
2023-01-09T06:00:11.273Z,2.77
2023-01-09T06:05:34.275Z,2.69
2023-01-09T06:10:56.531Z,2.63
2023-01-09T06:16:19.384Z,2.54
2023-01-09T06:21:41.681Z,2.45
2023-01-09T06:27:03.969Z,2.31
2023-01-09T06:32:26.631Z,2.17
2023-01-09T06:37:49.970Z,2.00
2023-01-09T06:43:12.198Z,1.87
2023-01-09T06:48:34.575Z,1.79
2023-01-09T06:53:56.813Z,1.80
2023-01-09T06:59:19.083Z,1.90
2023-01-09T07:04:41.356Z,1.92
2023-01-09T07:10:04.062Z,1.97
2023-01-09T07:15:26.609Z,1.81
2023-01-09T07:20:51.007Z,1.74
2023-01-09T07:26:15.909Z,1.70
2023-01-09T07:31:38.781Z,1.69
2023-01-09T07:37:01.349Z,1.66
2023-01-09T07:42:24.605Z,1.67
2023-01-09T07:47:47.837Z,1.69
2023-01-09T07:53:10.297Z,1.72
2023-01-09T07:58:33.004Z,1.73
2023-01-09T08:03:55.247Z,1.70
2023-01-09T08:09:18.632Z,1.69
2023-01-09T08:14:41.271Z,1.75
2023-01-09T08:20:03.551Z,1.81
2023-01-09T08:25:26.894Z,1.80
2023-01-09T08:30:49.696Z,1.81
2023-01-09T08:36:13.210Z,1.89
2023-01-09T08:41:53.570Z,1.96
2023-01-09T08:47:09.670Z,1.95
2023-01-09T08:52:31.968Z,2.02
2023-01-09T08:58:04.551Z,2.09
2023-01-09T09:03:28.113Z,2.10
2023-01-09T09:08:50.331Z,2.14
2023-01-09T09:14:31.215Z,2.13
2023-01-09T09:19:53.770Z,2.24
2023-01-09T09:25:16.907Z,2.29
2023-01-09T09:30:39.338Z,2.34
2023-01-09T09:36:02.372Z,2.42
2023-01-09T09:41:59.376Z,2.49
2023-01-09T09:47:56.925Z,2.66
2023-01-09T09:53:35.889Z,2.56
2023-01-09T09:59:27.105Z,2.57
2023-01-09T10:04:54.389Z,2.64
2023-01-09T10:10:21.887Z,2.69
2023-01-09T10:15:55.049Z,2.74
2023-01-09T10:21:22.240Z,2.75
2023-01-09T10:32:48.398Z,3.02
2023-01-09T10:38:13.513Z,2.94
2023-01-09T10:44:08.513Z,3.09
2023-01-09T10:49:32.907Z,3.01
2023-01-09T10:55:03.986Z,3.07
2023-01-09T11:00:30.027Z,3.07
2023-01-09T11:05:59.276Z,3.08
2023-01-09T11:11:44.652Z,3.08
2023-01-09T11:17:16.951Z,3.07
2023-01-09T11:22:49.272Z,3.06
2023-01-09T11:28:17.898Z,3.06
2023-01-09T11:33:44.064Z,3.07
2023-01-09T11:39:09.356Z,3.13
2023-01-09T11:44:33.800Z,3.13
2023-01-09T11:49:56.031Z,3.11
2023-01-09T11:55:27.249Z,3.09
2023-01-09T12:00:56.743Z,3.08
2023-01-09T12:06:41.873Z,3.10
2023-01-09T12:12:28.779Z,3.15
2023-01-09T12:18:27.704Z,3.16
2023-01-09T12:24:21.585Z,3.18
2023-01-09T12:30:08.799Z,3.20
2023-01-09T12:35:54.926Z,3.22
2023-01-09T12:41:46.164Z,3.24
2023-01-09T12:47:23.017Z,3.24
2023-01-09T12:52:53.601Z,3.30
2023-01-09T12:58:58.010Z,3.47
2023-01-09T13:04:35.281Z,3.37
2023-01-09T13:10:14.812Z,3.41
2023-01-09T13:15:50.909Z,3.40
2023-01-09T13:21:14.888Z,3.41
2023-01-09T13:26:45.195Z,3.39
2023-01-09T13:32:21.257Z,3.42
2023-01-09T13:37:53.689Z,3.44
2023-01-09T13:43:19.273Z,3.50
2023-01-09T13:48:48.526Z,3.49
2023-01-09T13:54:10.854Z,3.51
2023-01-09T13:59:45.283Z,3.47
2023-01-09T14:05:08.669Z,3.48
2023-01-09T14:11:00.350Z,3.48
2023-01-09T14:16:38.746Z,3.45
2023-01-09T14:22:04.375Z,3.42
2023-01-09T14:28:11.909Z,3.38
2023-01-09T14:33:40.382Z,3.39
2023-01-09T14:39:09.829Z,3.42
2023-01-09T14:45:07.775Z,3.39
2023-01-09T14:50:59.811Z,3.51
2023-01-09T14:56:29.696Z,3.43
2023-01-09T15:01:58.625Z,3.41
2023-01-09T15:07:28.506Z,3.40
2023-01-09T15:12:44.650Z,3.40
2023-01-09T15:18:16.164Z,3.40
2023-01-09T15:23:40.632Z,3.40
2023-01-09T15:29:09.525Z,3.40
2023-01-09T15:34:38.907Z,3.39
2023-01-09T15:40:02.397Z,3.41
2023-01-09T15:45:45.381Z,3.39
2023-01-09T15:51:19.281Z,3.36
2023-01-09T15:56:44.801Z,3.37
2023-01-09T16:02:32.435Z,3.35
2023-01-09T16:07:58.451Z,3.38
2023-01-09T16:13:23.040Z,3.34
2023-01-09T16:18:58.178Z,3.36
2023-01-09T16:24:34.796Z,3.40
2023-01-09T16:30:00.168Z,3.39
2023-01-09T16:35:29.285Z,3.39
2023-01-09T16:41:28.147Z,3.40
2023-01-09T16:46:53.990Z,3.39
2023-01-09T16:52:20.017Z,3.40
2023-01-09T16:57:43.516Z,3.41
2023-01-09T17:03:05.717Z,3.38
2023-01-09T17:08:44.918Z,3.39
2023-01-09T17:14:07.557Z,3.37
2023-01-09T17:19:32.568Z,3.37
2023-01-09T17:25:12.516Z,3.36
2023-01-09T17:30:34.907Z,3.34
2023-01-09T17:35:57.433Z,3.33
2023-01-09T17:41:20.789Z,3.34
2023-01-09T17:46:47.151Z,3.36
2023-01-09T17:52:09.347Z,3.34
2023-01-09T17:57:33.294Z,3.33
2023-01-09T18:02:55.857Z,3.33
2023-01-09T18:08:20.787Z,3.33
2023-01-09T18:13:44.785Z,3.33
2023-01-09T18:19:17.777Z,3.44
2023-01-09T18:24:40.257Z,3.33
2023-01-09T18:30:05.213Z,3.35
2023-01-09T18:35:31.243Z,3.37
2023-01-09T18:40:53.727Z,3.36
2023-01-09T18:46:22.467Z,3.38
2023-01-09T18:51:48.222Z,3.38
2023-01-09T18:57:11.711Z,3.39
2023-01-09T19:02:41.422Z,3.42
2023-01-09T19:07:59.578Z,3.42
2023-01-09T19:13:22.158Z,3.47
2023-01-09T19:18:47.387Z,3.48
2023-01-09T19:24:10.081Z,3.50
2023-01-09T19:29:34.685Z,3.51
2023-01-09T19:34:57.121Z,3.54
2023-01-09T19:40:19.910Z,3.55
2023-01-09T19:45:42.220Z,3.57
2023-01-09T19:51:07.051Z,3.60
2023-01-09T19:56:37.666Z,3.61
2023-01-09T20:02:00.399Z,3.65
2023-01-09T20:07:22.655Z,3.69
2023-01-09T20:12:45.681Z,3.73
2023-01-09T20:18:08.163Z,3.75
2023-01-09T20:23:32.511Z,3.80
2023-01-09T20:28:55.302Z,3.81
2023-01-09T20:34:20.869Z,3.85
2023-01-09T20:39:43.888Z,3.88
2023-01-09T20:45:06.090Z,3.90
2023-01-09T20:50:29.168Z,3.92
2023-01-09T20:55:51.496Z,3.97
2023-01-09T21:01:22.256Z,4.00
2023-01-09T21:06:47.616Z,4.02
2023-01-09T21:12:29.801Z,4.03
2023-01-09T21:17:53.605Z,4.03
2023-01-09T21:23:16.168Z,4.03
2023-01-09T21:28:44.068Z,4.04
2023-01-09T21:34:23.968Z,4.17
2023-01-09T21:39:46.598Z,4.07
2023-01-09T21:45:27.032Z,4.09
2023-01-09T21:50:49.436Z,4.09
2023-01-09T21:56:13.701Z,4.08
2023-01-09T22:01:36.092Z,4.10
2023-01-09T22:06:58.585Z,4.11
2023-01-09T22:12:22.279Z,4.11
2023-01-09T22:17:45.120Z,4.06
2023-01-09T22:23:07.304Z,4.04
2023-01-09T22:28:29.878Z,4.02
2023-01-09T22:33:57.746Z,3.99
2023-01-09T22:39:20.922Z,3.97
2023-01-09T22:44:43.178Z,3.95
2023-01-09T22:50:05.930Z,3.92
2023-01-09T22:55:28.661Z,3.84
2023-01-09T23:00:50.998Z,3.77
2023-01-09T23:06:26.260Z,3.73
2023-01-09T23:12:05.745Z,3.64
2023-01-09T23:17:29.800Z,3.53
2023-01-09T23:22:52.078Z,3.34
2023-01-09T23:28:14.376Z,3.11
2023-01-09T23:33:37.019Z,2.91
2023-01-09T23:38:59.873Z,2.65
2023-01-09T23:44:22.316Z,2.53
2023-01-09T23:49:44.697Z,2.34
2023-01-09T23:55:07.085Z,1.99
